Latest Weather Observations for Miles

IDQ60801

Issued at 7:35 pm EST Monday 20 October 2014 (issued every 30 minutes, with the page automatically refreshed every 10 minutes)

About weather observations | Map of weather stations | Latest weather observations for QLD | Other Formats
Station Details ID: 042112 Name: MILES CONSTANCE STREET Lat: -26.66 Lon: 150.18 Height: 304.8 m
Data from the previous 72 hours. | See also: Recent months at Miles
Date/Time
EST
Temp
°C
App
Temp
°C
Dew
Point
Rel
Hum
%
Delta-T
°C
Wind Press
QNH
hPa
Press
MSL
hPa
Rain
since 9 am
mm
Dir
 
Spd
km/h
Gust
km/h
Spd
kts
Gust
kts
20/07:30pm 23.5 23.5 9.9 42 7.5 ESE 0 0 0 0 1022.1 - 0.0
20/07:00pm 25.8 25.8 11.3 40 8.3 ESE 2 6 1 3 1021.7 - 0.0
20/06:30pm 27.6 25.5 6.6 26 11.2 ESE 7 13 4 7 1021.5 - 0.0
20/06:00pm 28.5 25.3 4.9 22 12.3 E 11 19 6 10 1021.2 1020.1 0.0
20/05:30pm 29.6 25.9 4.4 20 13.1 E 13 28 7 15 1020.9 - 0.0
20/05:00pm 30.0 26.8 5.2 21 13.1 E 11 17 6 9 1020.4 - 0.0
20/04:30pm 30.1 26.3 6.0 22 12.9 E 15 22 8 12 1020.4 - 0.0
20/04:00pm 30.3 27.4 6.7 22 12.8 SSE 11 19 6 10 1020.3 - 0.0
20/03:30pm 30.5 27.2 6.4 22 13.0 SE 13 28 7 15 1020.5 - 0.0
20/03:00pm 30.8 28.1 5.8 20 13.4 SE 9 20 5 11 1020.6 1019.5 0.0
20/02:30pm 30.1 26.3 5.7 21 13.0 E 15 22 8 12 1021.0 - 0.0
20/02:00pm 29.8 25.7 6.0 22 12.8 SE 17 28 9 15 1021.6 - 0.0
20/01:30pm 29.0 26.8 7.9 26 11.6 SSE 9 28 5 15 1022.1 - 0.0
20/01:00pm 28.6 26.5 8.3 28 11.2 E 9 24 5 13 1022.6 - 0.0
20/12:30pm 28.6 25.3 6.3 24 11.9 SSE 13 22 7 12 1023.2 - 0.0
20/12:00pm 28.8 25.9 8.1 27 11.4 SSE 13 20 7 11 1023.6 1022.5 0.0
20/11:30am 27.4 25.9 9.0 31 10.2 S 7 15 4 8 1024.2 - 0.0
20/11:00am 26.5 24.7 8.1 31 10.0 E 7 13 4 7 1025.0 - 0.0
20/10:30am 25.2 23.7 9.2 36 8.8 E 7 13 4 7 1025.3 - 0.0
20/10:00am 24.0 23.1 10.8 43 7.4 E 6 11 3 6 1025.9 - 0.0
20/09:30am 23.5 22.4 10.6 44 7.2 E 7 13 4 7 1026.1 - 0.0
20/09:00am 21.8 20.4 11.0 50 6.0 NNE 9 15 5 8 1026.4 1025.3 0.0
20/08:30am 20.6 19.2 11.0 54 5.3 NNE 9 17 5 9 1026.5 - 0.0
20/08:00am 20.0 18.0 11.4 57 4.8 N 13 20 7 11 1026.5 - 0.0
20/07:30am 18.5 16.4 11.2 62 4.0 N 13 20 7 11 1026.4 - 0.0
20/07:00am 17.6 16.0 11.4 67 3.4 N 11 19 6 10 1026.2 - 0.0
20/06:30am 15.6 14.6 11.0 74 2.5 N 7 11 4 6 1026.0 - 0.0
20/06:00am 13.9 12.8 10.7 81 1.7 N 7 9 4 5 1025.4 1024.3 0.0
20/05:30am 12.7 12.9 10.4 86 1.2 CALM 0 0 0 0 1025.5 - 0.0
20/05:00am 12.9 13.2 10.8 87 1.1 CALM 0 0 0 0 1025.6 - 0.0
20/04:30am 13.5 13.8 10.9 84 1.4 CALM 0 0 0 0 1025.3 - 0.0
20/04:00am 14.3 13.9 11.1 81 1.7 N 4 6 2 3 1025.3 - 0.0
20/03:30am 15.4 15.3 10.7 73 2.5 N 2 7 1 4 1025.1 - 0.0
20/03:00am 16.1 15.0 10.5 69 3.0 N 7 13 4 7 1024.9 1023.8 0.0
20/02:30am 16.7 15.2 10.4 66 3.4 N 9 15 5 8 1024.8 - 0.0
20/02:00am 17.2 15.6 10.3 64 3.7 N 9 11 5 6 1024.9 - 0.0
20/01:30am 17.7 16.1 10.3 62 4.0 NNE 9 15 5 8 1024.7 - 0.0
20/01:00am 18.4 16.4 10.0 58 4.5 NNE 11 17 6 9 1024.7 - 0.0
20/12:30am 19.1 17.0 9.6 54 5.1 N 11 17 6 9 1024.8 - 0.0
20/12:00am 19.9 17.5 8.5 47 6.0 N 11 19 6 10 1024.7 1023.6 0.0
 
Date/Time
EST
Temp
°C
App
Temp
°C
Dew
Point
Rel
Hum
%
Delta-T
°C
Wind Press
QNH
hPa
Press
MSL
hPa
Rain
since 9 am
mm
Dir
 
Spd
km/h
Gust
km/h
Spd
kts
Gust
kts
19/11:30pm 20.6 17.7 8.0 44 6.6 NNE 13 19 7 10 1024.8 - 0.0
19/11:00pm 20.7 17.9 6.9 40 7.1 NNE 11 17 6 9 1024.9 - 0.0
19/10:30pm 20.7 18.0 5.8 37 7.5 NNE 9 11 5 6 1024.8 - 0.0
19/10:00pm 20.6 18.7 6.5 40 7.2 N 6 9 3 5 1024.7 - 0.0
19/09:30pm 22.7 19.4 4.4 30 9.1 NNE 11 17 6 9 1024.6 - 0.0
19/09:00pm 23.2 19.3 3.4 27 9.7 ENE 13 20 7 11 1024.2 1023.2 0.0
19/08:30pm 18.6 17.2 8.9 53 5.1 E 6 7 3 4 1023.9 - 0.0
19/08:00pm 19.4 19.5 10.0 54 5.1 CALM 0 0 0 0 1023.6 - 0.0
19/07:30pm 20.9 20.7 9.2 47 6.3 CALM 0 0 0 0 1023.4 - 0.0
19/07:00pm 22.6 22.3 8.6 40 7.5 CALM 0 0 0 0 1023.2 - 0.0
19/06:30pm 25.0 23.3 7.6 33 9.3 ENE 6 9 3 5 1022.8 - 0.0
19/06:00pm 26.5 23.1 3.9 23 11.4 E 11 17 6 9 1022.6 1021.5 0.0
19/05:30pm 27.4 24.2 5.0 24 11.6 E 11 17 6 9 1022.3 - 0.0
19/05:00pm 27.8 24.5 4.8 23 11.9 ENE 11 19 6 10 1022.1 - 0.0
19/04:30pm 28.2 25.6 4.3 21 12.3 E 7 15 4 8 1022.0 - 0.0
19/04:00pm 28.6 26.1 5.0 22 12.3 WSW 7 15 4 8 1022.0 - 0.0
19/03:30pm 28.5 25.2 4.5 21 12.4 ESE 11 19 6 10 1022.1 - 0.0
19/03:00pm 28.1 24.4 4.7 22 12.1 SE 13 20 7 11 1022.2 1021.1 0.0
19/02:30pm 28.2 24.6 5.2 23 12.0 SE 13 24 7 13 1022.6 - 0.0
19/02:00pm 27.6 24.3 6.3 26 11.3 ESE 13 22 7 12 1023.1 - 0.0
19/01:30pm 27.4 23.9 7.4 28 10.8 ESE 15 24 8 13 1023.7 - 0.0
19/01:00pm 27.1 23.6 7.1 28 10.8 SSE 15 28 8 15 1024.4 - 0.0
19/12:30pm 27.2 24.3 8.1 30 10.5 SSE 13 20 7 11 1025.0 - 0.0
19/12:00pm 25.9 23.9 8.7 33 9.4 E 9 13 5 7 1025.4 1024.3 0.0
19/11:30am 24.7 22.4 8.9 36 8.7 ESE 11 20 6 11 1026.0 - 0.0
19/11:00am 24.6 23.4 10.3 40 8.0 NNW 7 13 4 7 1026.5 - 0.0
19/10:30am 24.1 23.2 10.7 43 7.5 E 6 13 3 7 1026.9 - 0.0
19/10:00am 22.7 21.4 11.1 48 6.5 NE 9 17 5 9 1027.5 - 0.0
19/09:30am 21.4 20.1 11.4 53 5.6 NE 9 17 5 9 1028.0 - 0.0
19/09:00am 20.9 18.4 11.2 54 5.4 ENE 15 22 8 12 1028.3 1027.2 0.0
19/08:30am 18.7 15.8 11.0 61 4.2 NE 17 32 9 17 1028.5 - 0.0
19/08:00am 20.1 17.0 11.5 57 4.8 NE 19 28 10 15 1028.4 - 0.0
19/07:30am 18.2 15.4 11.5 65 3.7 NE 17 26 9 14 1028.1 - 0.0
19/07:00am 17.5 15.9 11.5 68 3.3 NNE 11 20 6 11 1027.8 - 0.0
19/06:30am 15.5 14.5 11.0 74 2.4 N 7 11 4 6 1027.5 - 0.0
19/06:00am 13.5 13.9 11.1 85 1.3 CALM 0 0 0 0 1027.1 1026.1 0.0
19/05:30am 12.7 13.0 11.0 89 0.9 CALM 0 0 0 0 1026.7 - 0.0
19/05:00am 12.7 12.9 10.6 87 1.1 CALM 0 0 0 0 1026.3 - 0.0
19/04:30am 13.2 13.4 10.7 85 1.3 CALM 0 0 0 0 1025.8 - 0.0
19/04:00am 14.5 14.7 10.7 78 2.0 CALM 0 0 0 0 1025.5 - 0.0
19/03:30am 15.5 14.5 10.4 71 2.7 NE 6 7 3 4 1025.2 - 0.0
19/03:00am 15.9 15.0 10.5 70 2.9 NNE 6 9 3 5 1025.1 1024.0 0.0
19/02:30am 16.5 15.3 10.3 67 3.3 NE 7 11 4 6 1025.1 - 0.0
19/02:00am 17.0 15.4 10.3 64 3.6 NE 9 15 5 8 1025.1 - 0.0
19/01:30am 17.6 15.2 10.1 61 4.0 NE 13 20 7 11 1025.1 - 0.0
19/01:00am 18.0 15.9 9.8 58 4.4 NE 11 17 6 9 1025.2 - 0.0
19/12:30am 18.5 16.4 9.7 56 4.7 NE 11 20 6 11 1025.5 - 0.0
19/12:00am 19.1 16.9 9.3 53 5.2 NE 11 19 6 10 1025.8 1024.7 0.0
 
Date/Time
EST
Temp
°C
App
Temp
°C
Dew
Point
Rel
Hum
%
Delta-T
°C
Wind Press
QNH
hPa
Press
MSL
hPa
Rain
since 9 am
mm
Dir
 
Spd
km/h
Gust
km/h
Spd
kts
Gust
kts
18/11:30pm 19.5 17.2 8.9 50 5.6 NE 11 17 6 9 1025.7 - 0.0
18/11:00pm 20.0 18.4 8.9 48 5.9 NE 7 13 4 7 1025.3 - 0.0
18/10:30pm 20.6 18.4 8.0 44 6.6 NE 9 15 5 8 1025.4 - 0.0
18/10:00pm 21.2 18.6 7.6 41 7.1 NE 11 20 6 11 1025.1 - 0.0
18/09:30pm 21.9 17.6 5.4 34 8.3 NE 17 26 9 14 1025.0 - 0.0
18/09:00pm 22.5 18.9 3.1 28 9.4 ENE 11 19 6 10 1024.7 1023.6 0.0
18/08:30pm 23.1 19.0 2.5 26 9.9 E 13 24 7 13 1024.4 - 0.0
18/08:00pm 23.2 19.6 2.7 26 9.9 E 11 20 6 11 1023.8 - 0.0
18/07:30pm 22.8 20.1 3.9 29 9.3 E 7 13 4 7 1023.5 - 0.0
18/07:00pm 23.5 21.1 4.5 29 9.5 E 6 9 3 5 1023.2 - 0.0
18/06:30pm 24.7 22.2 4.5 27 10.2 E 7 13 4 7 1022.8 - 0.0
18/06:00pm 25.9 22.7 2.8 22 11.4 E 9 15 5 8 1022.4 1021.3 0.0
18/05:30pm 26.6 23.2 2.1 20 12.0 E 9 13 5 7 1021.9 - 0.0
18/05:00pm 27.5 24.5 1.8 19 12.6 ENE 7 22 4 12 1021.5 - 0.0
18/04:30pm 27.6 23.6 0.4 17 13.0 ENE 11 20 6 11 1021.3 - 0.0
18/04:00pm 28.0 24.8 2.8 19 12.6 ENE 9 22 5 12 1021.3 - 0.0
18/03:30pm 27.7 23.1 1.8 18 12.7 E 15 22 8 12 1021.3 - 0.0
18/03:00pm 27.8 24.4 2.0 19 12.7 NE 9 20 5 11 1021.4 1020.3 0.0
18/02:30pm 27.9 23.6 1.1 17 13.0 E 13 22 7 12 1021.8 - 0.0
18/02:00pm 27.9 24.5 1.9 18 12.8 SE 9 19 5 10 1022.2 - 0.0
18/01:30pm 27.7 23.9 1.8 18 12.7 SE 11 26 6 14 1022.7 - 0.0
18/01:00pm 27.0 23.3 4.2 23 11.7 E 13 28 7 15 1022.9 - 0.0
18/12:30pm 26.2 22.9 4.7 25 11.0 ESE 11 17 6 9 1023.4 - 0.0
18/12:00pm 27.2 23.9 4.3 23 11.7 ESE 11 19 6 10 1024.0 1023.0 0.0
18/11:30am 26.2 22.6 5.0 25 10.9 E 13 24 7 13 1024.5 - 0.0
18/11:00am 25.1 22.1 6.1 29 9.9 ENE 11 20 6 11 1024.8 - 0.0
18/10:30am 24.1 21.0 7.2 33 9.0 ENE 13 26 7 14 1025.1 - 0.0
18/10:00am 24.9 21.2 7.9 33 9.2 NNE 17 26 9 14 1025.4 - 0.0
18/09:30am 23.7 20.1 8.2 37 8.3 NE 17 28 9 15 1025.6 - 0.0
18/09:00am 22.3 18.9 9.2 43 7.1 NNE 17 30 9 16 1025.6 1024.5 0.0
18/08:30am 21.7 18.5 9.8 46 6.5 NE 17 26 9 14 1025.8 - 0.0
18/08:00am 20.7 17.7 10.7 52 5.5 E 17 24 9 13 1025.8 - 0.0
18/07:30am 19.5 16.6 11.0 58 4.7 ENE 17 26 9 14 1025.7 - 0.0
18/07:00am 18.2 15.5 11.7 66 3.6 E 17 24 9 13 1025.4 - 0.0
18/06:58am 18.1 15.5 12.0 67 3.4 E 17 24 9 13 1025.4 - 0.0
18/06:30am 13.1 12.5 7.4 68 2.8 CALM 0 0 0 0 1025.0 - 0.0
18/06:00am 10.8 10.0 6.4 74 2.1 CALM 0 0 0 0 1024.6 1023.5 0.0
18/05:30am 10.0 9.1 5.9 75 1.9 CALM 0 0 0 0 1024.1 - 0.0
18/05:00am 10.3 9.5 6.7 78 1.7 CALM 0 0 0 0 1023.7 - 0.0
18/04:30am 11.0 10.1 6.1 72 2.3 CALM 0 0 0 0 1023.0 - 0.0
18/04:00am 12.6 12.1 7.8 72 2.4 CALM 0 0 0 0 1022.7 - 0.0
18/03:30am 13.8 11.7 6.6 62 3.5 SE 7 11 4 6 1022.6 - 0.0
18/03:00am 13.7 11.4 5.8 59 3.8 SE 7 9 4 5 1022.4 1021.3 0.0
18/02:30am 11.2 10.1 4.9 65 2.9 CALM 0 0 0 0 1022.4 - 0.0
18/02:00am 10.8 8.4 4.2 64 3.0 SE 6 11 3 6 1022.1 - 0.0
18/01:30am 9.7 8.3 3.3 64 2.8 CALM 0 0 0 0 1022.0 - 0.0
18/01:00am 9.8 8.4 3.7 66 2.7 CALM 0 0 0 0 1022.0 - 0.0
18/12:30am 10.2 8.9 3.9 65 2.8 CALM 0 0 0 0 1022.1 - 0.0
18/12:00am 11.6 9.0 3.0 55 3.8 ESE 6 13 3 7 1022.1 1021.0 0.0
 
Date/Time
EST
Temp
°C
App
Temp
°C
Dew
Point
Rel
Hum
%
Delta-T
°C
Wind Press
QNH
hPa
Press
MSL
hPa
Rain
since 9 am
mm
Dir
 
Spd
km/h
Gust
km/h
Spd
kts
Gust
kts
17/11:30pm 10.8 9.6 4.4 64 2.9 CALM 0 0 0 0 1022.0 - 0.0
17/11:00pm 11.2 9.8 3.6 59 3.4 CALM 0 0 0 0 1022.0 - 0.0
17/10:30pm 11.9 10.5 3.7 57 3.7 CALM 0 0 0 0 1022.0 - 0.0
17/10:00pm 12.8 11.4 3.3 52 4.3 CALM 0 0 0 0 1021.8 - 0.0
17/09:30pm 13.6 11.9 2.1 45 5.1 CALM 0 0 0 0 1021.7 - 0.0
17/09:00pm 14.6 13.4 4.6 51 4.7 CALM 0 0 0 0 1021.7 1020.6 0.0
17/08:30pm 15.6 14.9 7.0 56 4.3 CALM 0 0 0 0 1021.5 - 0.0
17/08:00pm 17.0 16.2 6.6 50 5.2 CALM 0 0 0 0 1021.3 - 0.0

Other Formats:

Comma delimited format used in spreadsheet applications
http://www.bom.gov.au/fwo/IDQ60801/IDQ60801.95529.axf

JavaScript Object Notation format (JSON) in row-major order
http://www.bom.gov.au/fwo/IDQ60801/IDQ60801.95529.json